createdAt,value
2019-02-08T00:00:13.015Z,25.13
2019-02-08T00:05:29.900Z,12.40
2019-02-08T00:10:46.685Z,23.53
2019-02-08T00:16:03.744Z,21.63
2019-02-08T00:21:22.266Z,21.77
2019-02-08T00:26:39.327Z,18.73
2019-02-08T00:31:56.755Z,15.90
2019-02-08T00:37:14.447Z,18.30
2019-02-08T00:42:31.555Z,13.50
2019-02-08T00:47:48.846Z,21.10
2019-02-08T00:53:05.686Z,23.37
2019-02-08T00:58:23.146Z,24.63
2019-02-08T01:03:40.037Z,16.93
2019-02-08T01:08:58.028Z,32.33
2019-02-08T01:14:15.299Z,21.20
2019-02-08T01:19:32.357Z,11.40
2019-02-08T01:24:49.310Z,19.40
2019-02-08T01:30:06.701Z,8.93
2019-02-08T01:35:23.749Z,17.83
2019-02-08T01:40:40.781Z,8.23
2019-02-08T01:45:58.021Z,13.90
2019-02-08T01:51:14.760Z,9.77
2019-02-08T01:56:31.818Z,8.40
2019-02-08T02:01:48.923Z,7.73
2019-02-08T02:07:05.796Z,13.57
2019-02-08T02:12:22.746Z,6.33
2019-02-08T02:17:39.787Z,15.07
2019-02-08T02:22:56.763Z,9.70
2019-02-08T02:28:14.411Z,10.67
2019-02-08T02:33:31.822Z,8.77
2019-02-08T02:38:49.394Z,15.90
2019-02-08T02:44:06.120Z,15.33
2019-02-08T02:49:23.373Z,5.23
2019-02-08T02:54:40.450Z,13.50
2019-02-08T02:59:57.657Z,10.27
2019-02-08T03:05:14.453Z,12.40
2019-02-08T03:10:31.606Z,10.70
2019-02-08T03:15:48.675Z,7.80
2019-02-08T03:21:06.301Z,10.80
2019-02-08T03:26:23.347Z,11.60
2019-02-08T03:31:40.354Z,15.53
2019-02-08T03:36:57.995Z,14.30
2019-02-08T03:42:15.006Z,4.47
2019-02-08T03:47:32.229Z,5.60
2019-02-08T03:52:49.074Z,7.77
2019-02-08T03:58:06.329Z,10.77
2019-02-08T04:03:23.827Z,10.73
2019-02-08T04:08:40.876Z,11.20
2019-02-08T04:13:58.063Z,15.30
2019-02-08T04:19:15.396Z,11.80
2019-02-08T04:24:32.611Z,7.33
2019-02-08T04:29:49.718Z,6.87
2019-02-08T04:35:06.619Z,8.50
2019-02-08T04:40:24.205Z,14.07
2019-02-08T04:45:41.701Z,6.73
2019-02-08T04:50:58.739Z,12.53
2019-02-08T04:56:16.333Z,4.77
2019-02-08T05:01:33.205Z,9.10
2019-02-08T05:06:50.557Z,8.67
2019-02-08T05:12:07.318Z,17.23
2019-02-08T05:17:24.716Z,13.43
2019-02-08T05:22:42.111Z,8.57
2019-02-08T05:27:59.480Z,8.70
2019-02-08T05:33:16.650Z,7.67
2019-02-08T05:38:33.865Z,4.53
2019-02-08T05:43:51.321Z,5.60
2019-02-08T05:49:08.268Z,5.57
2019-02-08T05:54:25.654Z,9.83
2019-02-08T05:59:42.769Z,8.53
2019-02-08T06:05:00.340Z,20.87
2019-02-08T06:10:17.086Z,21.47
2019-02-08T06:15:34.232Z,12.03
2019-02-08T06:20:51.682Z,9.30
2019-02-08T06:26:08.945Z,15.50
2019-02-08T06:31:26.487Z,7.70
2019-02-08T06:36:43.717Z,8.07
2019-02-08T06:42:01.195Z,14.27
2019-02-08T06:47:18.588Z,14.20
2019-02-08T06:52:35.564Z,13.30
2019-02-08T06:57:52.455Z,20.87
2019-02-08T07:14:52.962Z,9.03
2019-02-08T07:20:28.827Z,9.67
2019-02-08T07:26:05.169Z,13.87
2019-02-08T07:31:41.083Z,9.60
2019-02-08T07:42:56.993Z,10.90
2019-02-08T07:48:29.699Z,9.37
2019-02-08T07:54:27.185Z,19.27
2019-02-08T08:00:24.057Z,18.93
2019-02-08T08:06:00.562Z,11.03
2019-02-08T08:11:36.255Z,15.70
2019-02-08T08:17:03.161Z,15.50
2019-02-08T08:22:39.301Z,11.60
2019-02-08T08:28:32.345Z,8.73
2019-02-08T08:33:49.690Z,12.65
2019-02-08T08:39:06.418Z,15.23
2019-02-08T08:44:24.097Z,15.03
2019-02-08T08:49:41.049Z,8.23
2019-02-08T08:54:58.202Z,12.93
2019-02-08T09:00:14.990Z,20.10
2019-02-08T09:05:32.629Z,4.13
2019-02-08T09:10:49.658Z,18.37
2019-02-08T09:16:06.874Z,13.77
2019-02-08T09:21:24.151Z,4.27
2019-02-08T09:26:41.138Z,15.53
2019-02-08T09:31:58.324Z,14.47
2019-02-08T09:37:16.074Z,20.97
2019-02-08T09:42:33.059Z,16.07
2019-02-08T09:47:50.684Z,20.50
2019-02-08T09:53:07.606Z,12.77
2019-02-08T09:58:24.654Z,16.17
2019-02-08T10:03:41.428Z,8.37
2019-02-08T10:08:58.402Z,11.47
2019-02-08T10:14:15.302Z,17.17
2019-02-08T10:19:32.310Z,20.20
2019-02-08T10:24:49.411Z,21.27
2019-02-08T10:30:07.029Z,17.87
2019-02-08T10:35:23.933Z,15.13
2019-02-08T10:40:41.026Z,24.70
2019-02-08T10:45:58.442Z,22.80
2019-02-08T10:51:15.515Z,21.77
2019-02-08T10:56:33.166Z,25.63
2019-02-08T11:01:50.059Z,20.97
2019-02-08T11:07:07.231Z,10.27
2019-02-08T11:12:24.324Z,18.87
2019-02-08T11:17:41.395Z,13.70
2019-02-08T11:22:58.543Z,14.13
2019-02-08T11:28:15.721Z,16.53
2019-02-08T11:33:32.870Z,11.03
2019-02-08T11:38:50.383Z,19.70
2019-02-08T11:44:07.276Z,12.40
2019-02-08T11:49:24.522Z,19.70
2019-02-08T11:54:42.219Z,15.60
2019-02-08T11:59:59.542Z,11.63
2019-02-08T12:05:16.300Z,12.57
2019-02-08T12:10:33.374Z,17.47
2019-02-08T12:15:50.693Z,20.33
2019-02-08T12:21:07.491Z,27.57
2019-02-08T12:26:24.415Z,23.50
2019-02-08T12:31:41.406Z,9.27
2019-02-08T12:36:58.535Z,10.20
2019-02-08T12:42:15.819Z,24.17
2019-02-08T12:47:32.798Z,15.00
2019-02-08T12:52:49.952Z,14.57
2019-02-08T12:58:06.729Z,5.97
2019-02-08T13:03:23.943Z,10.33
2019-02-08T13:08:41.191Z,8.17
2019-02-08T13:13:58.397Z,14.10
2019-02-08T13:19:15.749Z,14.67
2019-02-08T13:24:33.412Z,9.23
2019-02-08T13:29:50.732Z,10.33
2019-02-08T13:35:08.951Z,16.50
2019-02-08T13:40:26.164Z,6.77
2019-02-08T13:45:43.076Z,4.27
2019-02-08T13:51:00.024Z,10.07
2019-02-08T13:56:17.095Z,7.57
2019-02-08T14:01:34.118Z,3.37
2019-02-08T14:06:51.137Z,8.47
2019-02-08T14:12:08.078Z,11.93
2019-02-08T14:17:25.237Z,6.87
2019-02-08T14:22:42.552Z,11.67
2019-02-08T14:27:59.789Z,4.23
2019-02-08T14:33:17.846Z,9.90
2019-02-08T14:38:35.634Z,7.30
2019-02-08T14:43:52.879Z,14.73
2019-02-08T14:49:10.233Z,10.80
2019-02-08T14:54:27.190Z,12.10
2019-02-08T14:59:44.695Z,8.27
2019-02-08T15:05:01.384Z,17.03
2019-02-08T15:10:18.899Z,11.07
2019-02-08T15:15:35.797Z,10.43
2019-02-08T15:20:52.942Z,10.60
2019-02-08T15:26:11.239Z,8.03
2019-02-08T15:31:28.657Z,5.90
2019-02-08T15:36:49.248Z,4.43
2019-02-08T15:42:05.191Z,11.23
2019-02-08T15:47:22.886Z,6.73
2019-02-08T15:52:39.977Z,7.50
2019-02-08T15:57:56.816Z,8.90
2019-02-08T16:03:13.811Z,9.00
2019-02-08T16:08:30.687Z,6.83
2019-02-08T16:13:47.419Z,5.87
2019-02-08T16:19:04.969Z,4.70
2019-02-08T16:24:22.094Z,4.10
2019-02-08T16:29:39.123Z,7.17
2019-02-08T16:34:56.504Z,6.23
2019-02-08T16:40:13.559Z,6.03
2019-02-08T16:45:30.518Z,4.50
2019-02-08T16:50:47.868Z,2.57
2019-02-08T16:56:04.839Z,2.53
2019-02-08T17:01:22.014Z,2.90
2019-02-08T17:06:38.843Z,2.80
2019-02-08T17:11:55.761Z,1.33
2019-02-08T17:17:12.775Z,5.60
2019-02-08T17:22:29.714Z,2.43
2019-02-08T17:27:47.382Z,2.77
2019-02-08T17:33:04.498Z,3.97
2019-02-08T17:38:21.770Z,7.35
2019-02-08T17:43:39.409Z,12.35
2019-02-08T17:48:56.409Z,4.87
2019-02-08T17:54:13.915Z,8.23
2019-02-08T17:59:31.089Z,11.60
2019-02-08T18:04:49.150Z,16.50
2019-02-08T18:10:06.733Z,22.43
2019-02-08T18:15:23.655Z,14.47
2019-02-08T18:20:40.594Z,28.70
2019-02-08T18:25:58.151Z,34.33
2019-02-08T18:31:15.911Z,41.23
2019-02-08T18:36:32.978Z,43.90
2019-02-08T18:41:50.091Z,55.23
2019-02-08T18:47:07.581Z,37.70
2019-02-08T18:52:25.040Z,45.07
2019-02-08T18:57:42.381Z,45.03
2019-02-08T19:02:59.970Z,41.47
2019-02-08T19:08:17.093Z,43.70
2019-02-08T19:13:34.744Z,44.50
2019-02-08T19:18:51.902Z,43.33
2019-02-08T19:24:09.521Z,45.93
2019-02-08T19:29:26.553Z,33.13
2019-02-08T19:34:43.608Z,36.03
2019-02-08T19:40:01.231Z,38.73
2019-02-08T19:45:18.868Z,37.10
2019-02-08T19:50:35.735Z,36.17
2019-02-08T19:55:53.063Z,26.57
2019-02-08T20:01:10.408Z,40.90
2019-02-08T20:06:27.477Z,51.13
2019-02-08T20:11:44.659Z,34.40
2019-02-08T20:17:01.679Z,37.87
2019-02-08T20:22:19.039Z,42.00
2019-02-08T20:27:36.459Z,32.00
2019-02-08T20:32:53.458Z,40.97
2019-02-08T20:38:10.458Z,36.10
2019-02-08T20:43:28.522Z,36.67
2019-02-08T20:48:45.638Z,35.93
2019-02-08T20:54:02.882Z,34.23
2019-02-08T20:59:19.985Z,26.07
2019-02-08T21:04:36.835Z,26.17
2019-02-08T21:09:53.989Z,36.90
2019-02-08T21:15:10.956Z,41.07
2019-02-08T21:20:28.241Z,39.03
2019-02-08T21:25:52.127Z,44.17
2019-02-08T21:31:04.213Z,34.17
2019-02-08T21:36:21.385Z,26.60
2019-02-08T21:41:38.941Z,30.33
2019-02-08T21:46:56.392Z,35.23
2019-02-08T21:52:13.183Z,34.87
2019-02-08T21:57:30.786Z,30.63
2019-02-08T22:02:47.606Z,30.50
2019-02-08T22:08:04.611Z,38.67
2019-02-08T22:13:22.314Z,18.23
2019-02-08T22:18:39.315Z,26.90
2019-02-08T22:23:56.607Z,25.53
2019-02-08T22:29:14.479Z,17.57
2019-02-08T22:34:31.959Z,23.87
2019-02-08T22:39:49.000Z,15.97
2019-02-08T22:45:08.919Z,20.90
2019-02-08T22:50:25.274Z,21.40
2019-02-08T22:55:42.421Z,21.60
2019-02-08T23:00:59.611Z,14.40
2019-02-08T23:06:17.082Z,17.53
2019-02-08T23:11:34.167Z,22.43
2019-02-08T23:16:51.576Z,18.73
2019-02-08T23:22:08.646Z,22.53
2019-02-08T23:27:25.887Z,13.10
2019-02-08T23:32:43.111Z,19.60
2019-02-08T23:38:00.606Z,11.90
2019-02-08T23:43:17.449Z,16.67
2019-02-08T23:48:34.654Z,7.03
2019-02-08T23:53:52.202Z,13.80
2019-02-08T23:59:09.580Z,8.33
